createdAt,value
2022-09-07T00:00:43.871Z,14.1
2022-09-07T00:01:46.473Z,14.1
2022-09-07T00:02:49.670Z,14.1
2022-09-07T00:03:53.541Z,14.2
2022-09-07T00:04:54.891Z,14.1
2022-09-07T00:05:56.883Z,14.1
2022-09-07T00:06:58.671Z,14
2022-09-07T00:08:00.652Z,14
2022-09-07T00:09:02.819Z,13.9
2022-09-07T00:10:08.891Z,13.9
2022-09-07T00:11:12.556Z,13.9
2022-09-07T00:12:14.752Z,13.9
2022-09-07T00:13:16.584Z,14
2022-09-07T00:14:19.255Z,13.6
2022-09-07T00:15:21.652Z,13.5
2022-09-07T00:16:23.915Z,13.5
2022-09-07T00:17:25.591Z,13.5
2022-09-07T00:18:30.149Z,13.5
2022-09-07T00:19:32.809Z,13.5
2022-09-07T00:20:34.641Z,13.6
2022-09-07T00:21:36.571Z,13.6
2022-09-07T00:22:37.952Z,13.8
2022-09-07T00:23:39.862Z,13.8
2022-09-07T00:24:41.660Z,13.8
2022-09-07T00:25:43.693Z,13.8
2022-09-07T00:26:47.271Z,13.9
2022-09-07T00:27:50.592Z,13.9
2022-09-07T00:28:52.552Z,14
2022-09-07T00:29:54.800Z,14
2022-09-07T00:30:56.655Z,14
2022-09-07T00:31:58.817Z,13.9
2022-09-07T00:33:01.590Z,13.8
2022-09-07T00:34:03.593Z,13.9
2022-09-07T00:35:05.735Z,13.8
2022-09-07T00:36:07.673Z,13.8
2022-09-07T00:37:09.692Z,13.8
2022-09-07T00:38:11.552Z,13.8
2022-09-07T00:39:12.532Z,13.8
2022-09-07T00:40:13.672Z,13.7
2022-09-07T00:41:15.711Z,13.6
2022-09-07T00:42:17.652Z,13.5
2022-09-07T00:43:19.631Z,13.5
2022-09-07T00:44:21.704Z,13.6
2022-09-07T00:45:23.579Z,13.5
2022-09-07T00:46:25.717Z,13.5
2022-09-07T00:47:27.572Z,13.6
2022-09-07T00:48:29.889Z,13.5
2022-09-07T00:49:31.832Z,13.5
2022-09-07T00:50:33.792Z,13.5
2022-09-07T00:51:35.591Z,13.6
2022-09-07T00:52:36.491Z,13.5
2022-09-07T00:53:37.571Z,13.6
2022-09-07T00:54:39.511Z,13.6
2022-09-07T00:55:40.643Z,13.6
2022-09-07T00:56:42.711Z,13.6
2022-09-07T00:57:44.512Z,13.5
2022-09-07T00:58:45.731Z,13.6
2022-09-07T00:59:47.512Z,13.6
2022-09-07T01:03:56.535Z,13.4
2022-09-07T01:04:57.559Z,13.4
2022-09-07T01:05:59.635Z,13.5
2022-09-07T01:07:02.176Z,13.5
2022-09-07T01:08:03.676Z,13.5
2022-09-07T01:09:06.176Z,13.6
2022-09-07T01:10:07.537Z,13.6
2022-09-07T01:11:11.536Z,13.7
2022-09-07T01:12:13.536Z,13.8
2022-09-07T01:13:14.915Z,13.8
2022-09-07T01:14:16.636Z,13.9
2022-09-07T01:15:18.657Z,13.9
2022-09-07T01:16:21.106Z,13.9
2022-09-07T01:17:22.716Z,13.9
2022-09-07T01:18:24.761Z,13.8
2022-09-07T01:19:26.536Z,13.8
2022-09-07T01:20:27.575Z,13.8
2022-09-07T01:21:28.496Z,13.8
2022-09-07T01:22:30.720Z,13.8
2022-09-07T01:23:32.636Z,13.8
2022-09-07T01:24:34.916Z,13.7
2022-09-07T01:25:36.902Z,13.7
2022-09-07T01:26:39.895Z,13.7
2022-09-07T01:27:42.535Z,13.7
2022-09-07T01:28:43.717Z,13.7
2022-09-07T01:29:47.075Z,13.5
2022-09-07T01:30:51.093Z,13.5
2022-09-07T01:31:54.656Z,13.4
2022-09-07T01:32:56.876Z,13.5
2022-09-07T01:33:59.316Z,13.5
2022-09-07T01:35:01.976Z,13.4
2022-09-07T01:36:04.105Z,13.4
2022-09-07T01:37:06.956Z,13.3
2022-09-07T01:38:09.295Z,13.3
2022-09-07T01:39:13.056Z,13.3
2022-09-07T01:40:15.596Z,13.4
2022-09-07T01:41:17.515Z,13.5
2022-09-07T01:42:18.676Z,13.5
2022-09-07T01:43:20.676Z,13.4
2022-09-07T01:44:26.717Z,13.3
2022-09-07T01:45:28.716Z,13.4
2022-09-07T01:46:30.911Z,13.4
2022-09-07T01:47:34.558Z,13.4
2022-09-07T01:48:36.720Z,13.4
2022-09-07T01:49:39.015Z,13.5
2022-09-07T01:50:43.097Z,13.3
2022-09-07T01:51:46.075Z,13.4
2022-09-07T01:52:47.924Z,13.2
2022-09-07T01:53:51.015Z,13.1
2022-09-07T01:54:53.637Z,13.2
2022-09-07T01:55:59.937Z,13.1
2022-09-07T01:57:03.215Z,13.1
2022-09-07T01:58:05.956Z,13.1
2022-09-07T01:59:10.015Z,13.1
2022-09-07T02:00:13.423Z,13
2022-09-07T02:01:15.169Z,12.9
2022-09-07T02:02:17.801Z,12.8
2022-09-07T02:03:21.058Z,12.8
2022-09-07T02:04:22.883Z,12.8
2022-09-07T02:05:25.598Z,12.8
2022-09-07T02:06:27.996Z,12.9
2022-09-07T02:07:29.497Z,12.9
2022-09-07T02:08:31.995Z,13.1
2022-09-07T02:09:33.478Z,13.2
2022-09-07T02:10:35.197Z,13.3
2022-09-07T02:11:37.679Z,13.3
2022-09-07T02:12:39.675Z,13.3
2022-09-07T02:13:42.096Z,13.4
2022-09-07T02:14:44.160Z,13.6
2022-09-07T02:15:46.820Z,13.6
2022-09-07T02:16:48.975Z,13.5
2022-09-07T02:17:51.796Z,13.5
2022-09-07T02:18:57.316Z,13.4
2022-09-07T02:20:00.270Z,13.3
2022-09-07T02:21:03.122Z,13.2
2022-09-07T02:22:04.635Z,13
2022-09-07T02:23:06.776Z,13.1
2022-09-07T02:24:08.457Z,13.2
2022-09-07T02:25:10.164Z,13.1
2022-09-07T02:26:12.397Z,12.9
2022-09-07T02:27:13.815Z,13
2022-09-07T02:28:16.169Z,13
2022-09-07T02:29:18.858Z,13
2022-09-07T02:30:22.082Z,13.1
2022-09-07T02:31:24.704Z,13.1
2022-09-07T02:32:27.416Z,13.2
2022-09-07T02:33:30.035Z,13.3
2022-09-07T02:34:32.596Z,13.4
2022-09-07T02:35:35.616Z,13.3
2022-09-07T02:36:41.796Z,13.3
2022-09-07T02:37:43.697Z,13.3
2022-09-07T02:38:46.522Z,13.2
2022-09-07T02:39:49.057Z,13.1
2022-09-07T02:40:50.995Z,13
2022-09-07T02:41:53.004Z,13
2022-09-07T02:42:54.656Z,13
2022-09-07T02:43:57.558Z,13
2022-09-07T02:45:00.515Z,13
2022-09-07T02:46:03.515Z,13
2022-09-07T02:47:05.875Z,13.1
2022-09-07T02:48:07.455Z,13.1
2022-09-07T02:49:09.035Z,13
2022-09-07T02:50:11.396Z,12.9
2022-09-07T02:51:12.541Z,12.9
2022-09-07T02:52:13.581Z,12.9
2022-09-07T02:53:15.955Z,12.9
2022-09-07T02:54:19.056Z,12.9
2022-09-07T02:55:22.442Z,12.7
2022-09-07T02:56:27.215Z,12.5
2022-09-07T02:57:29.004Z,12.4
2022-09-07T02:58:33.135Z,12.3
2022-09-07T02:59:36.620Z,12.4
2022-09-07T03:00:40.435Z,12.5
2022-09-07T03:01:41.538Z,12.6
2022-09-07T03:02:45.538Z,12.7
2022-09-07T03:03:49.575Z,12.6
2022-09-07T03:04:51.895Z,12.5
2022-09-07T03:05:54.976Z,12.6
2022-09-07T03:06:58.335Z,12.6
2022-09-07T03:08:03.214Z,12.7
2022-09-07T03:09:08.016Z,12.8
2022-09-07T03:10:12.016Z,12.9
2022-09-07T03:11:15.697Z,12.9
2022-09-07T03:12:18.975Z,13
2022-09-07T03:13:23.822Z,12.9
2022-09-07T03:14:27.155Z,12.8
2022-09-07T03:15:32.218Z,12.8
2022-09-07T03:16:36.249Z,12.8
2022-09-07T03:17:38.535Z,12.8
2022-09-07T03:18:41.335Z,12.7
2022-09-07T03:19:44.183Z,12.7
2022-09-07T03:20:52.930Z,12.7
2022-09-07T03:21:55.655Z,12.6
2022-09-07T03:23:00.094Z,12.6
2022-09-07T03:24:03.555Z,12.5
2022-09-07T03:25:06.156Z,12.5
2022-09-07T03:26:10.055Z,12.5
2022-09-07T03:27:13.875Z,12.5
2022-09-07T03:28:16.056Z,12.5
2022-09-07T03:29:19.916Z,12.4
2022-09-07T03:30:23.675Z,12.3
2022-09-07T03:31:25.862Z,12.3
2022-09-07T03:32:27.840Z,12.3
2022-09-07T03:33:30.821Z,12.3
2022-09-07T03:34:34.275Z,12.2
2022-09-07T03:35:36.835Z,12.3
2022-09-07T03:36:39.083Z,12.4
2022-09-07T03:37:41.483Z,12.4
2022-09-07T03:38:43.155Z,12.4
2022-09-07T03:39:46.697Z,12.5
2022-09-07T03:40:49.376Z,12.6
2022-09-07T03:41:51.675Z,12.7
2022-09-07T03:42:53.995Z,12.8
2022-09-07T03:43:56.461Z,12.8
2022-09-07T03:44:58.735Z,12.9
2022-09-07T03:46:01.126Z,12.9
2022-09-07T03:47:04.015Z,12.8
2022-09-07T03:48:07.815Z,12.7
2022-09-07T03:49:10.876Z,12.6
2022-09-07T03:50:14.327Z,12.5
2022-09-07T03:51:17.135Z,12.2
2022-09-07T03:52:18.678Z,12.3
2022-09-07T03:53:20.543Z,12.1
2022-09-07T03:54:22.575Z,12
2022-09-07T03:55:24.595Z,12
2022-09-07T03:56:26.596Z,12.1
2022-09-07T03:57:29.175Z,12.2
2022-09-07T03:58:32.802Z,12.3
2022-09-07T03:59:35.515Z,12.4
2022-09-07T04:00:37.415Z,12.5
2022-09-07T04:01:40.583Z,12.6
2022-09-07T04:02:43.449Z,12.6
2022-09-07T04:03:49.155Z,12.6
2022-09-07T04:04:52.655Z,12.5
2022-09-07T04:05:56.155Z,12.4
2022-09-07T04:06:58.771Z,12.4
2022-09-07T04:08:01.515Z,12.4
2022-09-07T04:09:04.015Z,12.4
2022-09-07T04:10:07.778Z,12.4
2022-09-07T04:11:11.495Z,12.4
2022-09-07T04:12:15.300Z,12.3
2022-09-07T04:13:19.204Z,12.3
2022-09-07T04:14:22.495Z,12.3
2022-09-07T04:15:25.632Z,12.2
2022-09-07T04:16:34.789Z,12.3
2022-09-07T04:17:36.977Z,12.2
2022-09-07T04:18:39.873Z,12.2
2022-09-07T04:19:42.920Z,12.3
2022-09-07T04:20:44.761Z,12.3
2022-09-07T04:21:47.963Z,12.4
2022-09-07T04:22:54.158Z,12.4
2022-09-07T04:23:54.705Z,12.4
2022-09-07T04:24:56.952Z,12.4
2022-09-07T04:26:00.096Z,12.4
2022-09-07T04:27:03.121Z,12.4
2022-09-07T04:28:05.875Z,12.3
2022-09-07T04:29:07.717Z,12.2
2022-09-07T04:30:10.126Z,12.2
2022-09-07T04:31:12.619Z,12.2
2022-09-07T04:32:15.897Z,12.2
2022-09-07T04:33:16.539Z,12.2
2022-09-07T04:34:18.656Z,12.3
2022-09-07T04:35:20.798Z,12.5
2022-09-07T04:36:22.683Z,12.6
2022-09-07T04:37:24.545Z,12.6
2022-09-07T04:38:30.419Z,12.6
2022-09-07T04:39:33.612Z,12.5
2022-09-07T04:40:39.615Z,12.4
2022-09-07T04:41:42.818Z,12.5
2022-09-07T04:42:46.116Z,12.5
2022-09-07T04:43:48.935Z,12.3
2022-09-07T04:44:53.076Z,12.3
2022-09-07T04:45:56.289Z,12.2
2022-09-07T04:47:00.078Z,12.1
2022-09-07T04:48:03.555Z,12.1
2022-09-07T04:49:05.576Z,12.2
2022-09-07T04:50:06.604Z,12.2
2022-09-07T04:51:08.795Z,12.1
2022-09-07T04:52:10.751Z,12.1
2022-09-07T04:53:12.738Z,12.2
2022-09-07T04:54:14.636Z,12.2
2022-09-07T04:55:16.606Z,12.1
2022-09-07T04:56:18.538Z,12.2
2022-09-07T04:57:20.696Z,12.3
2022-09-07T04:58:23.614Z,12.2
2022-09-07T04:59:25.775Z,12
2022-09-07T05:00:27.876Z,12
2022-09-07T05:01:29.601Z,12
2022-09-07T05:02:31.709Z,12
2022-09-07T05:03:33.615Z,12.1
2022-09-07T05:04:36.035Z,12.1
2022-09-07T05:05:38.076Z,12
2022-09-07T05:06:39.565Z,11.9
2022-09-07T05:07:40.613Z,12
2022-09-07T05:08:42.629Z,11.9
2022-09-07T05:09:44.719Z,11.9
2022-09-07T05:10:50.085Z,11.9
2022-09-07T05:11:52.224Z,11.8
2022-09-07T05:12:53.644Z,11.9
2022-09-07T05:13:55.715Z,11.9
2022-09-07T05:14:57.595Z,11.9
2022-09-07T05:15:59.536Z,11.9
2022-09-07T05:17:01.691Z,11.9
2022-09-07T05:18:04.115Z,11.8
2022-09-07T05:19:05.655Z,11.8
2022-09-07T05:20:07.837Z,11.7
2022-09-07T05:21:09.783Z,11.8
2022-09-07T05:22:11.515Z,12
2022-09-07T05:23:13.566Z,11.9
2022-09-07T05:24:14.656Z,11.8
2022-09-07T05:25:16.638Z,11.8
2022-09-07T05:26:18.795Z,11.8
2022-09-07T05:27:20.680Z,12
2022-09-07T05:28:22.680Z,12
2022-09-07T05:31:28.766Z,12.2
2022-09-07T05:32:30.515Z,12.3
2022-09-07T05:34:33.811Z,12.2
2022-09-07T05:35:35.536Z,12.3
2022-09-07T05:36:36.555Z,12.4
2022-09-07T05:37:37.555Z,12.7
2022-09-07T05:38:38.536Z,12.9
2022-09-07T05:39:39.563Z,13.1
2022-09-07T05:40:41.012Z,13.3
2022-09-07T05:41:42.876Z,13.2
2022-09-07T05:42:44.876Z,13.1
2022-09-07T05:44:48.558Z,13
2022-09-07T05:45:49.756Z,13
2022-09-07T05:46:51.935Z,13
2022-09-07T05:47:53.599Z,12.9
2022-09-07T05:48:54.658Z,13
2022-09-07T05:49:57.123Z,13.1
2022-09-07T05:50:57.555Z,13.1
2022-09-07T05:51:59.639Z,13.2
2022-09-07T05:53:01.596Z,13.2
2022-09-07T05:54:03.456Z,13
2022-09-07T05:55:19.587Z,12.8
2022-09-07T05:56:07.247Z,12.8
2022-09-07T05:57:08.655Z,12.7
2022-09-07T05:58:10.615Z,12.8
2022-09-07T05:59:12.775Z,12.9
2022-09-07T06:00:14.656Z,12.8
2022-09-07T06:01:16.518Z,12.8
2022-09-07T06:02:18.730Z,12.9
2022-09-07T06:03:20.042Z,13.1
2022-09-07T06:04:21.735Z,13.3
2022-09-07T06:05:23.775Z,13.5
2022-09-07T06:06:25.623Z,13.5
2022-09-07T06:07:27.704Z,13.4
2022-09-07T06:08:29.611Z,13.3
2022-09-07T06:09:30.888Z,13
2022-09-07T06:10:48.403Z,12.9
2022-09-07T06:11:34.564Z,13.1
2022-09-07T06:12:35.635Z,13.2
2022-09-07T06:13:37.777Z,13.2
2022-09-07T06:14:39.738Z,13.3
2022-09-07T06:15:41.715Z,13.4
2022-09-07T06:16:43.754Z,13.3
2022-09-07T06:17:45.496Z,13.4
2022-09-07T06:18:46.579Z,13.6
2022-09-07T06:19:47.576Z,13.8
2022-09-07T06:20:48.626Z,14
2022-09-07T06:21:49.695Z,14.1
2022-09-07T06:22:51.556Z,14
2022-09-07T06:23:52.639Z,13.6
2022-09-07T06:24:53.515Z,13.4
2022-09-07T06:25:54.698Z,13.5
2022-09-07T06:26:56.636Z,13.5
2022-09-07T06:27:58.716Z,13.7
2022-09-07T06:29:01.615Z,13.9
2022-09-07T06:30:02.738Z,14
2022-09-07T06:31:04.995Z,14.1
2022-09-07T06:33:07.697Z,13.9
2022-09-07T06:34:09.716Z,13.9
2022-09-07T06:35:11.527Z,14.1
2022-09-07T06:36:13.796Z,14.2
2022-09-07T06:37:15.675Z,14.1
2022-09-07T06:38:17.756Z,14
2022-09-07T06:39:19.757Z,14.1
2022-09-07T06:40:21.575Z,14.2
2022-09-07T06:42:26.015Z,14.4
2022-09-07T06:43:27.704Z,14.3
2022-09-07T06:44:29.804Z,14.4
2022-09-07T06:45:31.567Z,14.3
2022-09-07T06:47:35.636Z,14.5
2022-09-07T06:48:39.640Z,14.6
2022-09-07T06:49:39.605Z,14.8
2022-09-07T06:50:40.715Z,14.7
2022-09-07T06:51:42.935Z,14.6
2022-09-07T06:53:47.106Z,14.9
2022-09-07T06:55:50.556Z,14.5
2022-09-07T06:56:51.635Z,14.5
2022-09-07T06:57:52.558Z,14.4
2022-09-07T06:58:53.716Z,14.2
2022-09-07T06:59:55.703Z,14.1
2022-09-07T07:00:57.667Z,14.2
2022-09-07T07:01:59.556Z,14.3
2022-09-07T07:03:00.599Z,14.5
2022-09-07T07:04:16.589Z,14.6
2022-09-07T07:05:18.818Z,14.8
2022-09-07T07:06:20.555Z,15
2022-09-07T07:07:21.655Z,15.1
2022-09-07T07:08:23.957Z,15.3
2022-09-07T07:09:25.696Z,15.5
2022-09-07T07:10:27.632Z,15.4
2022-09-07T07:11:28.775Z,15.5
2022-09-07T07:13:37.756Z,15.8
2022-09-07T07:14:44.216Z,15.9
2022-09-07T07:15:41.796Z,16
2022-09-07T07:16:44.582Z,16.1
2022-09-07T07:17:47.975Z,16.2
2022-09-07T07:18:47.556Z,15.8
2022-09-07T07:19:48.716Z,15.6
2022-09-07T07:20:50.677Z,15.3
2022-09-07T07:22:54.740Z,15.3
2022-09-07T07:23:56.636Z,15.3
2022-09-07T07:24:59.135Z,15.5
2022-09-07T07:26:00.656Z,15.5
2022-09-07T07:27:02.735Z,15.5
2022-09-07T07:29:06.701Z,15.3
2022-09-07T07:30:08.739Z,15.3
2022-09-07T07:31:13.145Z,15.4
2022-09-07T07:32:12.646Z,15.5
2022-09-07T07:33:13.764Z,15.3
2022-09-07T07:34:15.750Z,15.3
2022-09-07T07:35:17.897Z,15.3
2022-09-07T07:36:19.723Z,15.1
2022-09-07T07:37:24.772Z,15.2
2022-09-07T07:40:42.981Z,15.8
2022-09-07T07:42:01.582Z,15.9
2022-09-07T07:43:01.655Z,16.1
2022-09-07T07:44:03.804Z,16.3
2022-09-07T07:46:07.765Z,16.3
2022-09-07T07:47:09.738Z,16.3
2022-09-07T07:48:11.816Z,16.4
2022-09-07T07:49:13.618Z,16.5
2022-09-07T07:50:30.453Z,16.6
2022-09-07T07:51:16.599Z,16.5
2022-09-07T07:54:21.596Z,16.8
2022-09-07T07:56:24.876Z,17
2022-09-07T07:57:26.936Z,17.2
2022-09-07T07:58:28.696Z,17.2
2022-09-07T07:59:30.602Z,17.1
2022-09-07T08:00:43.953Z,17.1
2022-09-07T08:01:33.930Z,17
2022-09-07T08:02:35.644Z,16.8
2022-09-07T08:03:37.796Z,16.8
2022-09-07T08:04:39.677Z,17
2022-09-07T08:05:40.800Z,17.1
2022-09-07T08:06:42.716Z,17.3
2022-09-07T08:07:44.784Z,17.4
2022-09-07T08:08:47.755Z,17.4
2022-09-07T08:09:49.778Z,17.3
2022-09-07T08:10:51.696Z,17.3
2022-09-07T08:11:53.596Z,17.2
2022-09-07T08:12:54.605Z,17.2
2022-09-07T08:13:55.905Z,17.2
2022-09-07T08:14:57.719Z,17.3
2022-09-07T08:15:59.337Z,17.5
2022-09-07T08:17:00.738Z,17.6
2022-09-07T08:18:02.676Z,17.8
2022-09-07T08:19:04.675Z,17.9
2022-09-07T08:20:06.683Z,17.9
2022-09-07T08:21:08.704Z,17.8
2022-09-07T08:22:10.655Z,17.8
2022-09-07T08:23:11.782Z,17.8
2022-09-07T08:24:13.576Z,17.8
2022-09-07T08:25:14.743Z,17.9
2022-09-07T08:26:16.715Z,18.1
2022-09-07T08:27:18.735Z,18
2022-09-07T08:28:20.636Z,18
2022-09-07T08:29:23.296Z,17.9
2022-09-07T08:30:24.775Z,17.9
2022-09-07T08:31:26.976Z,17.9
2022-09-07T08:32:28.630Z,17.8
2022-09-07T08:33:29.667Z,17.7
2022-09-07T08:34:31.676Z,17.8
2022-09-07T08:35:32.676Z,17.8
2022-09-07T08:36:34.819Z,18
2022-09-07T08:37:36.757Z,18
2022-09-07T08:38:42.635Z,18
2022-09-07T08:39:44.654Z,18.1
2022-09-07T08:40:46.908Z,17.8
2022-09-07T08:41:48.536Z,17.6
2022-09-07T08:42:50.716Z,17.5
2022-09-07T08:44:04.117Z,17.5
2022-09-07T08:45:05.564Z,17.6
2022-09-07T08:46:07.631Z,17.5
2022-09-07T08:47:09.795Z,17.5
2022-09-07T08:48:11.647Z,17.6
2022-09-07T08:49:14.195Z,17.8
2022-09-07T08:50:15.782Z,17.9
2022-09-07T08:51:21.182Z,18
2022-09-07T08:52:19.598Z,18.1
2022-09-07T08:53:20.656Z,18.3
2022-09-07T08:54:22.695Z,18.1
2022-09-07T08:55:24.658Z,17.9
2022-09-07T08:56:29.137Z,18
2022-09-07T08:57:28.715Z,18.3
2022-09-07T08:58:48.515Z,18.4
2022-09-07T08:59:32.977Z,18.3
2022-09-07T09:00:34.599Z,18.2
2022-09-07T09:01:36.987Z,18.2
2022-09-07T09:02:44.175Z,18.2
2022-09-07T09:04:15.199Z,18.3
2022-09-07T09:05:43.727Z,18.6
2022-09-07T09:06:45.510Z,18.7
2022-09-07T09:07:46.682Z,18.8
2022-09-07T09:08:48.555Z,18.9
2022-09-07T09:09:49.596Z,18.9
2022-09-07T09:10:51.657Z,18.9
2022-09-07T09:11:53.477Z,19
2022-09-07T09:12:54.515Z,19.1
2022-09-07T09:13:56.017Z,19.4
2022-09-07T09:14:57.575Z,19.6
2022-09-07T09:15:58.625Z,19.7
2022-09-07T09:17:01.197Z,19.7
2022-09-07T09:18:02.517Z,19.7
2022-09-07T09:19:03.715Z,19.8
2022-09-07T09:20:05.544Z,19.7
2022-09-07T09:21:06.536Z,19.6
2022-09-07T09:22:07.674Z,19.4
2022-09-07T09:23:09.519Z,19.2
2022-09-07T09:24:10.915Z,19.1
2022-09-07T09:25:12.635Z,19.1
2022-09-07T09:26:14.531Z,19.2
2022-09-07T09:27:15.536Z,19.2
2022-09-07T09:28:17.606Z,19
2022-09-07T09:29:18.556Z,19
2022-09-07T09:30:19.717Z,19.1
2022-09-07T09:31:21.772Z,19.3
2022-09-07T09:32:23.835Z,19.4
2022-09-07T09:33:25.672Z,19.2
2022-09-07T09:34:30.349Z,19.3
2022-09-07T09:35:29.698Z,19.2
2022-09-07T09:36:31.546Z,19
2022-09-07T09:37:33.777Z,18.8
2022-09-07T09:38:35.870Z,18.8
2022-09-07T09:39:37.814Z,18.9
2022-09-07T09:40:39.639Z,19.1
2022-09-07T09:41:41.531Z,19.2
2022-09-07T09:42:42.756Z,19.3
2022-09-07T09:43:44.804Z,19.3
2022-09-07T09:44:47.118Z,19.4
2022-09-07T09:47:29.427Z,19.3
2022-09-07T09:47:53.553Z,19.2
2022-09-07T09:48:54.589Z,19
2022-09-07T09:49:55.635Z,19.1
2022-09-07T09:53:01.865Z,19.5
2022-09-07T09:54:05.102Z,19.4
2022-09-07T09:56:10.998Z,19.4
2022-09-07T09:57:12.530Z,19.6
2022-09-07T10:00:26.274Z,20
2022-09-07T10:01:21.526Z,20.2
2022-09-07T10:04:25.585Z,20.5
2022-09-07T10:05:26.589Z,20.4
2022-09-07T10:06:28.718Z,20.4
2022-09-07T10:07:30.537Z,20.5
2022-09-07T10:08:31.668Z,20.5
2022-09-07T10:09:37.151Z,20.5
2022-09-07T10:10:35.596Z,20.7
2022-09-07T10:12:39.723Z,21.1
2022-09-07T10:13:41.715Z,21.2
2022-09-07T10:14:43.875Z,21.2
2022-09-07T10:15:47.355Z,21.4
2022-09-07T10:16:49.856Z,21.3
2022-09-07T10:17:52.136Z,21.2
2022-09-07T10:18:55.457Z,21.3
2022-09-07T10:19:57.636Z,21.3
2022-09-07T10:20:59.823Z,21.4
2022-09-07T10:22:01.696Z,21.6
2022-09-07T10:23:04.295Z,21.6
2022-09-07T10:24:06.055Z,21.7
2022-09-07T10:25:08.707Z,21.7
2022-09-07T10:26:11.056Z,21.6
2022-09-07T10:27:12.604Z,21.6
2022-09-07T10:28:14.757Z,21.6
2022-09-07T10:29:17.180Z,21.4
2022-09-07T10:30:18.696Z,21.3
2022-09-07T10:31:30.501Z,21.1
2022-09-07T10:32:31.518Z,21.1
2022-09-07T10:33:32.563Z,21.1
2022-09-07T10:34:34.676Z,21.1
2022-09-07T10:35:36.736Z,21.1
2022-09-07T10:36:38.717Z,21
2022-09-07T10:37:40.695Z,21.2
2022-09-07T10:38:42.636Z,21.4
2022-09-07T10:39:44.760Z,21.5
2022-09-07T10:40:47.631Z,21.5
2022-09-07T10:41:48.735Z,21.6
2022-09-07T10:43:51.576Z,21.7
2022-09-07T10:44:52.595Z,21.6
2022-09-07T10:45:53.654Z,21.6
2022-09-07T10:46:57.226Z,21.7
2022-09-07T10:47:58.502Z,21.9
2022-09-07T10:48:59.675Z,22.2
2022-09-07T10:51:09.969Z,22.3
2022-09-07T10:52:04.596Z,22.4
2022-09-07T10:53:18.269Z,22.5
2022-09-07T10:55:08.609Z,22.7
2022-09-07T10:56:09.979Z,23
2022-09-07T10:57:11.740Z,23
2022-09-07T10:58:13.696Z,23.1
2022-09-07T10:59:15.728Z,22.9
2022-09-07T11:00:17.675Z,22.8
2022-09-07T11:01:19.754Z,22.8
2022-09-07T11:02:21.821Z,22.8
2022-09-07T11:03:25.658Z,22.9
2022-09-07T11:04:26.815Z,22.7
2022-09-07T11:05:32.761Z,22.4
2022-09-07T11:06:30.615Z,22.3
2022-09-07T11:07:32.699Z,22.3
2022-09-07T11:08:34.007Z,22.2
2022-09-07T11:09:35.675Z,22.2
2022-09-07T11:10:37.715Z,22.2
2022-09-07T11:12:40.595Z,22.3
2022-09-07T11:14:02.053Z,22.3
2022-09-07T11:14:44.536Z,22.3
2022-09-07T11:15:45.954Z,22.2
2022-09-07T11:16:51.558Z,22.3
2022-09-07T11:17:52.908Z,22.5
2022-09-07T11:18:51.548Z,22.6
2022-09-07T11:19:53.137Z,22.6
2022-09-07T11:20:54.541Z,22.8
2022-09-07T11:21:56.834Z,22.9
2022-09-07T11:22:57.967Z,22.9
2022-09-07T11:23:59.795Z,23
2022-09-07T11:26:03.671Z,23.2
2022-09-07T11:27:05.938Z,23.2
2022-09-07T11:28:07.716Z,23.2
2022-09-07T11:29:39.447Z,23.2
2022-09-07T11:30:10.636Z,23.2
2022-09-07T11:31:11.733Z,23.2
2022-09-07T11:32:13.584Z,23.1
2022-09-07T11:33:14.715Z,23
2022-09-07T11:34:24.359Z,22.8
2022-09-07T11:35:18.675Z,22.7
2022-09-07T11:36:23.896Z,22.6
2022-09-07T11:37:25.576Z,22.4
2022-09-07T11:38:26.795Z,22.2
2022-09-07T11:39:28.702Z,22.2
2022-09-07T11:40:30.766Z,22.2
2022-09-07T11:41:32.644Z,22.2
2022-09-07T11:42:50.079Z,22.2
2022-09-07T11:43:36.578Z,22.3
2022-09-07T11:44:37.755Z,22.3
2022-09-07T11:45:40.095Z,22.3
2022-09-07T11:46:41.744Z,22.2
2022-09-07T11:47:42.623Z,22.3
2022-09-07T11:48:44.997Z,22.4
2022-09-07T11:49:51.570Z,22.5
2022-09-07T11:50:52.675Z,22.7
2022-09-07T11:51:54.826Z,22.9
2022-09-07T11:52:57.157Z,22.9
2022-09-07T11:53:58.758Z,23.1
2022-09-07T11:55:00.644Z,23.2
2022-09-07T11:56:01.696Z,23.2
2022-09-07T11:57:04.818Z,23
2022-09-07T11:58:06.718Z,22.9
2022-09-07T11:59:07.916Z,23
2022-09-07T12:00:09.617Z,23.1
2022-09-07T12:01:10.670Z,23.1
2022-09-07T12:02:13.040Z,23.3
2022-09-07T12:03:15.082Z,23.3
2022-09-07T12:04:18.112Z,23.6
2022-09-07T12:05:20.035Z,23.8
2022-09-07T12:06:23.159Z,24
2022-09-07T12:07:25.896Z,23.9
2022-09-07T12:08:27.850Z,23.8
2022-09-07T12:09:30.096Z,23.6
2022-09-07T12:10:33.129Z,23.2
2022-09-07T12:11:36.696Z,23.2
2022-09-07T12:12:38.935Z,23.4
2022-09-07T12:13:41.119Z,23.5
2022-09-07T12:14:43.624Z,23.6
2022-09-07T12:15:45.774Z,23.6
2022-09-07T12:16:47.919Z,23.8
2022-09-07T12:17:49.795Z,23.9
2022-09-07T12:18:51.876Z,24
2022-09-07T12:19:53.955Z,23.9
2022-09-07T12:20:58.663Z,23.9
2022-09-07T12:22:01.016Z,24
2022-09-07T12:23:05.038Z,24.1
2022-09-07T12:24:05.958Z,24
2022-09-07T12:25:08.095Z,23.8
2022-09-07T12:26:11.459Z,23.7
2022-09-07T12:27:14.256Z,23.6
2022-09-07T12:28:21.782Z,23.8
2022-09-07T12:29:19.960Z,23.9
2022-09-07T12:30:22.498Z,24.1
2022-09-07T12:31:26.883Z,24.2
2022-09-07T12:32:58.495Z,24.4
2022-09-07T12:33:30.056Z,24.3
2022-09-07T12:34:31.862Z,24.2
2022-09-07T12:35:33.785Z,24.1
2022-09-07T12:36:36.425Z,24.2
2022-09-07T12:37:39.270Z,24.2
2022-09-07T12:38:42.600Z,24.4
2022-09-07T12:39:43.972Z,23.9
2022-09-07T12:40:45.768Z,23.8
2022-09-07T12:41:48.233Z,23.8
2022-09-07T12:42:50.858Z,23.8
2022-09-07T12:43:54.223Z,23.7
2022-09-07T12:44:56.121Z,23.7
2022-09-07T12:45:58.036Z,23.8
2022-09-07T12:47:00.255Z,23.7
2022-09-07T12:48:04.338Z,23.6
2022-09-07T12:49:03.696Z,23.7
2022-09-07T12:50:05.855Z,23.8
2022-09-07T12:51:07.837Z,24
2022-09-07T12:52:15.568Z,24.2
2022-09-07T12:53:12.084Z,24.2
2022-09-07T12:54:13.716Z,24.2
2022-09-07T12:55:27.781Z,24.3
2022-09-07T12:56:18.195Z,24.2
2022-09-07T12:57:34.934Z,23.9
2022-09-07T12:58:21.678Z,23.8
2022-09-07T12:59:23.720Z,23.8
2022-09-07T13:00:25.860Z,23.9
2022-09-07T13:01:28.476Z,23.9
2022-09-07T13:02:30.751Z,24.1
2022-09-07T13:04:34.937Z,24
2022-09-07T13:05:39.036Z,23.9
2022-09-07T13:07:42.964Z,23.9
2022-09-07T13:08:44.977Z,24
2022-09-07T13:09:47.577Z,24.2
2022-09-07T13:10:49.937Z,24.4
2022-09-07T13:11:53.056Z,24.5
2022-09-07T13:12:57.161Z,24.3
2022-09-07T13:14:02.834Z,24.2
2022-09-07T13:14:59.937Z,24.1
2022-09-07T13:16:01.961Z,24
2022-09-07T13:17:19.497Z,24
2022-09-07T13:18:06.057Z,24.2
2022-09-07T13:19:07.955Z,24.4
2022-09-07T13:20:10.116Z,24.4
2022-09-07T13:21:13.217Z,24.4
2022-09-07T13:22:16.607Z,24.4
2022-09-07T13:23:19.816Z,24.2
2022-09-07T13:25:23.915Z,24.2
2022-09-07T13:26:26.076Z,24.2
2022-09-07T13:27:28.036Z,24.3
2022-09-07T13:28:30.278Z,24.5
2022-09-07T13:29:31.775Z,24.7
2022-09-07T13:30:33.716Z,24.9
2022-09-07T13:31:35.857Z,25
2022-09-07T13:33:41.056Z,24.9
2022-09-07T13:34:43.968Z,24.9
2022-09-07T13:35:46.192Z,24.6
2022-09-07T13:36:48.761Z,24.5
2022-09-07T13:37:51.568Z,24.4
2022-09-07T13:38:54.139Z,24.1
2022-09-07T13:39:56.941Z,24.1
2022-09-07T13:41:00.768Z,24.3
2022-09-07T13:42:03.184Z,24.5
2022-09-07T13:43:06.237Z,24.4
2022-09-07T13:44:09.355Z,24.4
2022-09-07T13:45:13.119Z,24.5
2022-09-07T13:46:15.057Z,24.6
2022-09-07T13:47:17.828Z,24.5
2022-09-07T13:48:21.664Z,24.6
2022-09-07T13:49:29.419Z,24.7
2022-09-07T13:50:33.516Z,24.5
2022-09-07T13:51:36.676Z,24.4
2022-09-07T13:52:38.997Z,24.4
2022-09-07T13:53:42.342Z,24.3
2022-09-07T13:54:45.384Z,24.3
2022-09-07T13:55:47.862Z,24.2
2022-09-07T13:56:49.954Z,24.4
2022-09-07T13:57:53.242Z,24.6
2022-09-07T13:58:56.002Z,24.9
2022-09-07T13:59:57.742Z,24.8
2022-09-07T14:01:00.151Z,24.8
2022-09-07T14:02:03.140Z,24.6
2022-09-07T14:03:04.820Z,24.6
2022-09-07T14:04:06.960Z,24.6
2022-09-07T14:05:09.113Z,24.4
2022-09-07T14:06:11.586Z,24.3
2022-09-07T14:07:14.409Z,24.3
2022-09-07T14:08:17.091Z,24
2022-09-07T14:09:19.907Z,24.1
2022-09-07T14:10:22.490Z,24.3
2022-09-07T14:11:25.163Z,24.5
2022-09-07T14:12:28.492Z,24.6
2022-09-07T14:13:31.046Z,24.7
2022-09-07T14:14:32.905Z,24.7
2022-09-07T14:15:34.802Z,24.8
2022-09-07T14:16:38.006Z,24.9
2022-09-07T14:17:39.911Z,25.1
2022-09-07T14:18:42.216Z,25.2
2022-09-07T14:19:45.433Z,25.1
2022-09-07T14:20:48.523Z,25
2022-09-07T14:21:51.222Z,24.7
2022-09-07T14:22:53.831Z,24.3
2022-09-07T14:23:55.822Z,24.2
2022-09-07T14:24:58.047Z,24.2
2022-09-07T14:26:17.112Z,24.3
2022-09-07T14:27:03.521Z,24.3
2022-09-07T14:28:05.927Z,24.3
2022-09-07T14:29:09.141Z,24.1
2022-09-07T14:30:11.206Z,23.9
2022-09-07T14:31:14.299Z,24
2022-09-07T14:32:17.012Z,24.1
2022-09-07T14:33:18.708Z,24.2
2022-09-07T14:34:21.847Z,24.2
2022-09-07T14:35:25.045Z,24.3
2022-09-07T14:36:46.619Z,24.3